Aérodrome :
LOGIN :

S'inscrire | Disclaimer

   EN    FR    IT 

 










Légende :    VFR   VFR Marginal   IFR   IFR Intensif   IFR Très Intensif
Visi : 
Plafond : 
>= 8 km
>= 3000ft
5 à 8 km
1000 à 3000 ft
1500m à 5 km
500 à 1000 ft
800 à 1500m
200 à 500 ft
< 800m
< 200 ft
Symboles :   Orages  Brouillard  Fortes neiges  Fortes précipitations  Vent > 20 kt
SIGMETs :   Divers  Orages  Givrage  Turbulence  Onde Orograph.  Cendres Volcan.






- Altitude de l'aérodrome : 1460 ft


LSMA - Alpnach

DERNIER METAR :
  • 060450Z AUTO VRB01KT 2700NDV BR OVC002 M02/M02 Q1023 RMK

METARs EXPIRÉS :
  • 060420Z AUTO 00000KT 3700NDV BR SCT002 OVC005 M02/M02 Q1023 RMK
  • 060350Z AUTO VRB01KT 3200NDV BR OVC002 M02/M02 Q1023 RMK
  • 060320Z AUTO VRB02KT 3500NDV BR OVC002 M01/M01 Q1023 RMK
  • 060250Z AUTO VRB02KT 2400NDV BR OVC002 M01/M01 Q1023 RMK
  • 060220Z AUTO VRB01KT 1500NDV BCFG OVC002 M01/M01 Q1023 RMK

Prévision TAF périmée.



MET'MAP, la Météo Aéronautique d'un coup d'oeil ! - Copyright ORBIFLY Décembre 2007 - Disclaimer

ORBIFLY MET'MAP TEAM :

Programmation & Développement : Alexandra Zaïnal
Sur une idée originale de : Baudouin d'Aumeries
Assistance à la programmation : Marc-Olivier Méhu
Soutien technique & logistique : Manuel Goepfert

Contact : metmap@orbifly.com




SOURCES & CREDITS :

   NOAA